createdAt,value
2022-12-14T00:00:01.687Z,45.92
2022-12-14T00:02:28.813Z,36.88
2022-12-14T00:04:56.198Z,45.05
2022-12-14T00:07:23.287Z,40.33
2022-12-14T00:09:50.374Z,40.90
2022-12-14T00:12:17.552Z,45.08
2022-12-14T00:14:44.668Z,43.70
2022-12-14T00:17:11.945Z,41.97
2022-12-14T00:19:39.095Z,38.45
2022-12-14T00:22:06.146Z,47.88
2022-12-14T00:24:33.405Z,46.22
2022-12-14T00:27:00.555Z,46.35
2022-12-14T00:29:27.825Z,44.67
2022-12-14T00:31:54.878Z,42.35
2022-12-14T00:34:22.011Z,43.97
2022-12-14T00:36:49.298Z,48.38
2022-12-14T00:39:16.484Z,50.90
2022-12-14T00:41:43.521Z,45.38
2022-12-14T00:44:10.571Z,44.05
2022-12-14T00:46:37.712Z,49.28
2022-12-14T00:49:04.943Z,39.53
2022-12-14T00:51:32.088Z,44.00
2022-12-14T00:53:59.265Z,39.47
2022-12-14T00:56:26.447Z,52.17
2022-12-14T00:58:54.678Z,37.97
2022-12-14T01:01:22.354Z,48.40
2022-12-14T01:03:50.720Z,45.33
2022-12-14T01:06:23.068Z,43.50
2022-12-14T01:08:50.414Z,48.33
2022-12-14T01:11:17.552Z,46.92
2022-12-14T01:13:44.915Z,39.38
2022-12-14T01:16:17.039Z,43.38
2022-12-14T01:18:44.637Z,41.20
2022-12-14T01:21:17.863Z,39.00
2022-12-14T01:23:46.038Z,39.70
2022-12-14T01:26:15.167Z,40.40
2022-12-14T01:28:42.323Z,42.80
2022-12-14T01:31:18.718Z,51.10
2022-12-14T01:33:46.339Z,41.08
2022-12-14T01:36:16.215Z,41.88
2022-12-14T01:38:44.830Z,63.00
2022-12-14T01:41:27.335Z,44.42
2022-12-14T01:43:57.283Z,41.72
2022-12-14T01:46:30.536Z,39.58
2022-12-14T01:49:21.416Z,43.08
2022-12-14T01:52:29.591Z,49.38
2022-12-14T01:55:07.578Z,39.63
2022-12-14T01:57:50.744Z,39.47
2022-12-14T02:00:18.465Z,41.42
2022-12-14T02:03:15.559Z,41.53
2022-12-14T02:05:59.559Z,39.90
2022-12-14T02:08:27.801Z,39.78
2022-12-14T02:10:56.703Z,52.78
2022-12-14T02:13:31.615Z,44.22
2022-12-14T02:15:58.945Z,41.83
2022-12-14T02:18:29.397Z,44.03
2022-12-14T02:21:19.442Z,44.58
2022-12-14T02:24:21.357Z,46.80
2022-12-14T02:27:50.015Z,39.67
2022-12-14T02:30:23.003Z,45.78
2022-12-14T02:33:12.073Z,45.53
2022-12-14T02:35:54.040Z,47.72
2022-12-14T02:38:24.196Z,40.67
2022-12-14T02:40:58.280Z,37.95
2022-12-14T02:43:54.368Z,47.22
2022-12-14T02:46:29.970Z,37.00
2022-12-14T02:49:07.753Z,37.28
2022-12-14T02:51:48.827Z,31.98
2022-12-14T02:54:49.521Z,45.58
2022-12-14T02:57:28.664Z,45.53
2022-12-14T03:00:00.659Z,32.33
2022-12-14T03:02:29.481Z,44.72
2022-12-14T03:04:59.355Z,39.45
2022-12-14T03:07:33.597Z,36.92
2022-12-14T03:10:15.356Z,43.92
2022-12-14T03:12:48.248Z,52.80
2022-12-14T03:15:18.587Z,39.53
2022-12-14T03:17:49.249Z,34.53
2022-12-14T03:20:22.100Z,43.80
2022-12-14T03:23:11.328Z,33.85
2022-12-14T03:25:46.191Z,55.17
2022-12-14T03:28:28.915Z,36.50
2022-12-14T03:31:06.258Z,37.22
2022-12-14T03:33:34.799Z,37.58
2022-12-14T03:36:12.002Z,34.67
2022-12-14T03:38:44.150Z,40.97
2022-12-14T03:41:28.308Z,45.60
2022-12-14T03:44:03.424Z,42.80
2022-12-14T03:46:41.186Z,38.08
2022-12-14T03:49:35.276Z,39.20
2022-12-14T03:52:25.498Z,48.25
2022-12-14T03:55:00.206Z,46.75
2022-12-14T04:00:09.949Z,34.40
2022-12-14T04:03:24.103Z,43.35
2022-12-14T04:06:13.442Z,34.80
2022-12-14T04:09:20.533Z,38.58
2022-12-14T04:12:33.407Z,33.97
2022-12-14T04:15:34.617Z,40.90
2022-12-14T04:18:24.092Z,42.92
2022-12-14T04:20:57.531Z,38.53
2022-12-14T04:23:56.783Z,47.65
2022-12-14T04:26:30.331Z,44.25
2022-12-14T04:29:25.932Z,37.53
2022-12-14T04:31:59.586Z,42.63
2022-12-14T04:34:31.057Z,45.20
2022-12-14T04:37:04.919Z,33.08
2022-12-14T04:39:53.921Z,38.23
2022-12-14T04:42:27.711Z,42.38
2022-12-14T04:45:08.357Z,45.83
2022-12-14T04:47:41.342Z,45.00
2022-12-14T04:50:15.585Z,33.63
2022-12-14T04:52:59.088Z,34.33
2022-12-14T04:55:41.147Z,31.05
2022-12-14T04:58:16.438Z,33.53
2022-12-14T05:01:15.053Z,41.80
2022-12-14T05:03:58.437Z,41.45
2022-12-14T05:06:44.559Z,42.20
2022-12-14T05:09:27.359Z,34.70
2022-12-14T05:12:00.595Z,35.83
2022-12-14T05:14:38.426Z,31.38
2022-12-14T05:17:09.330Z,40.45
2022-12-14T05:19:38.038Z,39.63
2022-12-14T05:22:08.418Z,33.17
2022-12-14T05:24:35.893Z,36.70
2022-12-14T05:27:03.148Z,36.42
2022-12-14T05:29:30.560Z,38.42
2022-12-14T05:31:57.756Z,27.15
2022-12-14T05:34:25.159Z,42.38
2022-12-14T05:36:52.157Z,37.60
2022-12-14T05:39:19.325Z,36.92
2022-12-14T05:41:46.627Z,41.15
2022-12-14T05:44:14.004Z,42.58
2022-12-14T05:46:41.162Z,50.55
2022-12-14T05:49:08.586Z,39.60
2022-12-14T05:51:35.783Z,37.28
2022-12-14T05:54:02.862Z,44.10
2022-12-14T05:56:30.048Z,42.13
2022-12-14T05:58:57.317Z,39.47
2022-12-14T06:01:24.621Z,44.30
2022-12-14T06:03:54.719Z,41.42
2022-12-14T06:06:21.836Z,47.60
2022-12-14T06:08:49.011Z,44.85
2022-12-14T06:11:21.719Z,38.05
2022-12-14T06:13:49.437Z,50.55
2022-12-14T06:16:19.303Z,46.70
2022-12-14T06:18:49.598Z,56.63
2022-12-14T06:21:18.476Z,40.38
2022-12-14T06:23:46.314Z,46.65
2022-12-14T06:26:14.732Z,40.17
2022-12-14T06:28:42.269Z,41.72
2022-12-14T06:31:21.449Z,34.28
2022-12-14T06:33:48.630Z,37.22
2022-12-14T06:36:36.039Z,37.28
2022-12-14T06:39:14.609Z,40.35
2022-12-14T06:41:42.324Z,34.17
2022-12-14T06:44:13.179Z,51.90
2022-12-14T06:46:41.351Z,47.40
2022-12-14T06:49:13.092Z,57.30
2022-12-14T06:51:40.913Z,50.15
2022-12-14T06:54:10.292Z,35.17
2022-12-14T06:56:38.369Z,51.22
2022-12-14T06:59:05.770Z,39.88
2022-12-14T07:01:33.107Z,47.90
2022-12-14T07:04:00.388Z,41.08
2022-12-14T07:06:29.268Z,34.45
2022-12-14T07:08:58.467Z,39.55
2022-12-14T07:11:26.811Z,48.13
2022-12-14T07:13:55.110Z,42.90
2022-12-14T07:16:25.043Z,46.47
2022-12-14T07:18:53.868Z,40.63
2022-12-14T07:21:23.908Z,40.53
2022-12-14T07:23:54.672Z,42.55
2022-12-14T07:26:25.121Z,50.80
2022-12-14T07:28:52.710Z,40.63
2022-12-14T07:31:25.835Z,43.08
2022-12-14T07:33:58.490Z,37.17
2022-12-14T07:36:27.288Z,41.40
2022-12-14T07:38:58.511Z,47.38
2022-12-14T07:41:30.905Z,37.83
2022-12-14T07:43:59.949Z,45.05
2022-12-14T07:46:28.801Z,44.47
2022-12-14T07:48:57.916Z,37.17
2022-12-14T07:51:31.294Z,40.35
2022-12-14T07:54:01.522Z,48.17
2022-12-14T07:56:32.728Z,43.67
2022-12-14T07:59:01.244Z,45.60
2022-12-14T08:01:31.233Z,43.83
2022-12-14T08:04:09.863Z,35.35
2022-12-14T08:06:38.287Z,40.35
2022-12-14T08:09:07.965Z,38.80
2022-12-14T08:11:35.172Z,40.00
2022-12-14T08:14:05.064Z,51.05
2022-12-14T08:16:33.103Z,49.25
2022-12-14T08:19:01.593Z,37.97
2022-12-14T08:21:29.457Z,38.95
2022-12-14T08:23:57.637Z,36.05
2022-12-14T08:26:30.189Z,44.53
2022-12-14T08:29:00.597Z,40.45
2022-12-14T08:31:30.571Z,36.65
2022-12-14T08:33:59.430Z,42.42
2022-12-14T08:36:29.852Z,39.65
2022-12-14T08:39:08.623Z,37.83
2022-12-14T08:41:35.962Z,48.65
2022-12-14T08:44:04.512Z,30.00
2022-12-14T08:46:33.577Z,39.17
2022-12-14T08:49:01.272Z,35.92
2022-12-14T08:51:29.019Z,36.63
2022-12-14T08:53:56.899Z,40.30
2022-12-14T08:56:26.841Z,39.35
2022-12-14T08:58:54.548Z,37.88
2022-12-14T09:01:32.998Z,35.50
2022-12-14T09:04:08.188Z,42.25
2022-12-14T09:06:38.928Z,39.47
2022-12-14T09:09:15.274Z,45.72
2022-12-14T09:11:44.232Z,46.00
2022-12-14T09:14:11.653Z,38.05
2022-12-14T09:16:38.924Z,44.70
2022-12-14T09:19:06.426Z,52.75
2022-12-14T09:21:33.629Z,47.30
2022-12-14T09:24:01.633Z,46.10
2022-12-14T09:26:29.445Z,44.85
2022-12-14T09:28:58.371Z,44.58
2022-12-14T09:31:30.507Z,38.42
2022-12-14T09:33:57.811Z,46.08
2022-12-14T09:36:28.579Z,34.38
2022-12-14T09:38:57.819Z,40.58
2022-12-14T09:41:46.197Z,50.30
2022-12-14T09:44:25.142Z,40.05
2022-12-14T09:47:10.907Z,41.00
2022-12-14T09:49:54.078Z,40.63
2022-12-14T09:52:26.047Z,43.38
2022-12-14T09:54:55.223Z,39.58
2022-12-14T09:57:30.655Z,43.55
2022-12-14T09:59:57.769Z,42.08
2022-12-14T10:02:53.193Z,41.42
2022-12-14T10:08:28.946Z,46.60
2022-12-14T10:11:16.529Z,47.03
2022-12-14T10:13:56.704Z,46.92
2022-12-14T10:16:26.677Z,43.08
2022-12-14T10:19:12.117Z,50.03
2022-12-14T10:21:48.178Z,42.03
2022-12-14T10:24:27.552Z,36.65
2022-12-14T10:26:56.125Z,38.63
2022-12-14T10:29:42.341Z,40.80
2022-12-14T10:32:29.153Z,47.15
2022-12-14T10:34:57.189Z,42.63
2022-12-14T10:37:30.187Z,39.78
2022-12-14T10:40:15.499Z,38.72
2022-12-14T10:43:16.200Z,39.45
2022-12-14T10:46:13.931Z,40.53
2022-12-14T10:49:05.795Z,40.40
2022-12-14T10:51:44.283Z,45.28
2022-12-14T10:54:24.699Z,39.72
2022-12-14T10:56:52.115Z,41.30
2022-12-14T10:59:24.977Z,44.50
2022-12-14T11:01:59.921Z,33.88
2022-12-14T11:04:40.410Z,44.58
2022-12-14T11:07:09.821Z,47.50
2022-12-14T11:09:38.952Z,40.85
2022-12-14T11:12:16.306Z,44.85
2022-12-14T11:15:05.639Z,38.58
2022-12-14T11:17:42.921Z,41.70
2022-12-14T11:20:19.080Z,36.97
2022-12-14T11:22:47.383Z,38.25
2022-12-14T11:25:38.308Z,40.78
2022-12-14T11:28:38.262Z,35.47
2022-12-14T11:31:23.017Z,34.58
2022-12-14T11:33:56.406Z,36.13
2022-12-14T11:36:30.262Z,36.63
2022-12-14T11:39:01.429Z,35.53
2022-12-14T11:41:38.557Z,34.45
2022-12-14T11:44:36.720Z,41.75
2022-12-14T11:47:11.320Z,40.25
2022-12-14T11:49:41.092Z,35.95
2022-12-14T11:52:14.466Z,41.53
2022-12-14T11:54:49.739Z,41.92
2022-12-14T11:57:33.311Z,40.63
2022-12-14T12:00:25.355Z,40.22
2022-12-14T12:03:03.282Z,38.85
2022-12-14T12:05:39.140Z,39.67
2022-12-14T12:08:17.273Z,31.13
2022-12-14T12:10:50.290Z,37.03
2022-12-14T12:13:26.403Z,36.22
2022-12-14T12:15:57.524Z,33.90
2022-12-14T12:19:07.818Z,35.72
2022-12-14T12:21:41.929Z,35.13
2022-12-14T12:24:41.694Z,47.78
2022-12-14T12:27:19.174Z,41.80
2022-12-14T12:30:08.603Z,37.88
2022-12-14T12:32:50.007Z,58.85
2022-12-14T12:35:20.993Z,59.90
2022-12-14T12:37:56.432Z,39.50
2022-12-14T12:40:38.199Z,32.28
2022-12-14T12:43:07.676Z,38.15
2022-12-14T12:46:05.791Z,63.75
2022-12-14T12:48:57.775Z,50.42
2022-12-14T12:51:54.598Z,36.08
2022-12-14T12:54:36.399Z,26.95
2022-12-14T12:57:05.125Z,27.05
2022-12-14T13:00:06.654Z,38.22
2022-12-14T13:02:46.465Z,36.38
2022-12-14T13:05:45.650Z,27.70
2022-12-14T13:08:20.170Z,29.55
2022-12-14T13:13:41.328Z,31.52
2022-12-14T13:16:32.801Z,34.97
2022-12-14T13:19:40.537Z,42.65
2022-12-14T13:21:54.302Z,38.30
2022-12-14T13:24:23.442Z,36.58
2022-12-14T13:26:59.134Z,33.40
2022-12-14T13:29:47.783Z,23.80
2022-12-14T13:32:47.651Z,36.75
2022-12-14T13:35:17.625Z,32.47
2022-12-14T13:38:13.476Z,26.50
2022-12-14T13:41:11.378Z,26.83
2022-12-14T13:44:13.874Z,28.63
2022-12-14T13:46:41.961Z,27.35
2022-12-14T13:49:21.601Z,33.45
2022-12-14T13:51:50.822Z,35.05
2022-12-14T13:54:47.544Z,29.33
2022-12-14T13:57:23.549Z,24.42
2022-12-14T13:59:53.189Z,31.75
2022-12-14T14:02:51.500Z,30.48
2022-12-14T14:05:21.685Z,27.92
2022-12-14T14:08:02.281Z,22.98
2022-12-14T14:10:34.881Z,33.15
2022-12-14T14:13:27.595Z,28.48
2022-12-14T14:16:27.396Z,27.02
2022-12-14T14:19:11.520Z,32.60
2022-12-14T14:25:09.439Z,31.73
2022-12-14T14:27:50.530Z,32.65
2022-12-14T14:30:28.979Z,30.40
2022-12-14T14:33:07.699Z,29.23
2022-12-14T14:35:43.953Z,30.02
2022-12-14T14:38:32.316Z,27.00
2022-12-14T14:41:17.438Z,31.95
2022-12-14T14:44:15.503Z,26.20
2022-12-14T14:46:47.287Z,30.38
2022-12-14T14:49:32.524Z,37.17
2022-12-14T14:52:37.901Z,33.72
2022-12-14T14:55:53.436Z,30.00
2022-12-14T14:58:35.638Z,36.00
2022-12-14T15:01:21.342Z,31.98
2022-12-14T15:03:56.374Z,31.70
2022-12-14T15:06:31.376Z,38.65
2022-12-14T15:11:32.097Z,29.63
2022-12-14T15:14:06.031Z,31.20
2022-12-14T15:16:41.996Z,39.38
2022-12-14T15:19:36.227Z,34.05
2022-12-14T15:22:09.407Z,34.35
2022-12-14T15:24:42.300Z,39.10
2022-12-14T15:27:35.663Z,30.67
2022-12-14T15:30:11.911Z,33.15
2022-12-14T15:32:47.837Z,31.25
2022-12-14T15:35:25.639Z,33.90
2022-12-14T15:38:00.267Z,36.47
2022-12-14T15:40:32.851Z,34.60
2022-12-14T15:43:20.587Z,27.05
2022-12-14T15:45:50.976Z,42.17
2022-12-14T15:48:28.224Z,41.70
2022-12-14T15:51:05.542Z,38.17
2022-12-14T15:53:50.271Z,31.42
2022-12-14T15:56:38.021Z,35.85
2022-12-14T15:59:18.247Z,39.22
2022-12-14T16:01:53.751Z,46.28
2022-12-14T16:04:26.143Z,33.45
2022-12-14T16:07:09.423Z,35.95
2022-12-14T16:09:39.586Z,32.97
2022-12-14T16:12:18.884Z,37.13
2022-12-14T16:14:54.727Z,37.33
2022-12-14T16:17:29.697Z,41.80
2022-12-14T16:20:24.168Z,40.33
2022-12-14T16:23:01.550Z,34.30
2022-12-14T16:25:30.946Z,41.70
2022-12-14T16:27:58.346Z,38.83
2022-12-14T16:30:32.841Z,39.33
2022-12-14T16:33:15.221Z,36.30
2022-12-14T16:35:43.232Z,33.03
2022-12-14T16:38:16.097Z,43.65
2022-12-14T16:40:47.614Z,39.53
2022-12-14T16:43:36.602Z,35.20
2022-12-14T16:46:12.238Z,41.05
2022-12-14T16:48:42.667Z,37.53
2022-12-14T16:52:05.712Z,36.45
2022-12-14T16:54:25.813Z,37.35
2022-12-14T16:56:57.615Z,39.13
2022-12-14T16:59:38.981Z,34.42
2022-12-14T17:02:20.263Z,36.97
2022-12-14T17:04:47.803Z,42.15
2022-12-14T17:07:15.548Z,39.65
2022-12-14T17:09:45.733Z,39.53
2022-12-14T17:12:18.732Z,35.75
2022-12-14T17:14:49.838Z,43.10
2022-12-14T17:17:34.645Z,40.00
2022-12-14T17:20:05.860Z,37.70
2022-12-14T17:22:36.569Z,44.67
2022-12-14T17:25:03.802Z,42.17
2022-12-14T17:27:30.904Z,47.45
2022-12-14T17:29:58.213Z,36.72
2022-12-14T17:32:30.276Z,42.95
2022-12-14T17:34:58.548Z,46.50
2022-12-14T17:37:30.993Z,49.85
2022-12-14T17:40:01.355Z,42.15
2022-12-14T17:42:28.844Z,46.53
2022-12-14T17:44:59.621Z,61.17
2022-12-14T17:47:27.115Z,50.03
2022-12-14T17:49:56.926Z,42.35
2022-12-14T17:52:32.222Z,48.30
2022-12-14T17:54:59.885Z,42.10
2022-12-14T17:57:27.812Z,40.55
2022-12-14T18:00:13.407Z,37.75
2022-12-14T18:02:41.856Z,41.85
2022-12-14T18:05:19.654Z,44.67
2022-12-14T18:07:46.896Z,38.42
2022-12-14T18:10:18.710Z,38.67
2022-12-14T18:12:45.807Z,36.65
2022-12-14T18:15:20.629Z,51.42
2022-12-14T18:20:17.194Z,38.42
2022-12-14T18:22:51.016Z,46.10
2022-12-14T18:25:34.960Z,43.97
2022-12-14T18:28:11.902Z,47.72
2022-12-14T18:30:49.387Z,46.60
2022-12-14T18:33:20.523Z,43.42
2022-12-14T18:35:49.097Z,46.80
2022-12-14T18:38:18.421Z,56.33
2022-12-14T18:40:49.618Z,49.58
2022-12-14T18:43:24.162Z,58.25
2022-12-14T18:45:53.072Z,48.47
2022-12-14T18:48:20.831Z,45.53
2022-12-14T18:50:49.976Z,45.58
2022-12-14T18:53:22.409Z,52.03
2022-12-14T18:55:50.220Z,45.92
2022-12-14T18:58:20.938Z,39.75
2022-12-14T19:00:51.550Z,41.88
2022-12-14T19:03:19.571Z,41.05
2022-12-14T19:05:47.931Z,42.80
2022-12-14T19:08:17.955Z,39.97
2022-12-14T19:10:48.127Z,44.90
2022-12-14T19:13:25.796Z,42.83
2022-12-14T19:15:55.709Z,40.45
2022-12-14T19:18:23.060Z,44.28
2022-12-14T19:20:57.472Z,53.17
2022-12-14T19:23:24.500Z,34.17
2022-12-14T19:25:51.496Z,41.55
2022-12-14T19:28:32.485Z,41.97
2022-12-14T19:31:04.017Z,40.15
2022-12-14T19:33:32.491Z,40.70
2022-12-14T19:36:05.159Z,45.80
2022-12-14T19:38:32.274Z,39.58
2022-12-14T19:41:06.160Z,47.78
2022-12-14T19:43:34.262Z,46.83
2022-12-14T19:46:06.754Z,43.08
2022-12-14T19:48:34.195Z,39.40
2022-12-14T19:51:11.109Z,39.45
2022-12-14T19:53:40.099Z,37.00
2022-12-14T19:56:07.751Z,42.80
2022-12-14T19:58:34.876Z,40.80
2022-12-14T20:01:02.225Z,48.00
2022-12-14T20:03:30.341Z,38.65
2022-12-14T20:05:59.685Z,51.95
2022-12-14T20:08:29.032Z,41.28
2022-12-14T20:10:57.484Z,43.55
2022-12-14T20:13:30.307Z,42.25
2022-12-14T20:16:04.423Z,43.13
2022-12-14T20:18:32.476Z,35.50
2022-12-14T20:21:08.630Z,46.03
2022-12-14T20:23:37.695Z,43.60
2022-12-14T20:26:11.655Z,44.42
2022-12-14T20:28:38.892Z,42.17
2022-12-14T20:31:07.872Z,43.72
2022-12-14T20:33:35.216Z,39.50
2022-12-14T20:36:02.911Z,38.42
2022-12-14T20:38:30.178Z,38.70
2022-12-14T20:41:04.780Z,46.40
2022-12-14T20:43:42.147Z,48.20
2022-12-14T20:46:27.799Z,39.60
2022-12-14T20:48:55.617Z,40.45
2022-12-14T20:51:23.503Z,73.03
2022-12-14T20:53:50.858Z,68.97
2022-12-14T20:56:18.011Z,51.45
2022-12-14T20:58:47.404Z,43.33
2022-12-14T21:01:17.448Z,54.15
2022-12-14T21:03:47.174Z,53.85
2022-12-14T21:06:16.823Z,52.00
2022-12-14T21:09:02.483Z,41.85
2022-12-14T21:11:49.201Z,52.85
2022-12-14T21:14:17.331Z,59.65
2022-12-14T21:16:44.609Z,49.13
2022-12-14T21:19:13.256Z,55.10
2022-12-14T21:21:41.644Z,50.28
2022-12-14T21:24:25.678Z,50.65
2022-12-14T21:27:02.815Z,57.13
2022-12-14T21:29:29.894Z,53.38
2022-12-14T21:31:57.270Z,51.50
2022-12-14T21:34:24.594Z,50.15
2022-12-14T21:36:51.831Z,48.05
2022-12-14T21:39:20.380Z,46.42
2022-12-14T21:42:06.165Z,47.95
2022-12-14T21:44:37.011Z,44.15
2022-12-14T21:47:08.056Z,47.05
2022-12-14T21:49:39.849Z,47.25
2022-12-14T21:52:08.167Z,45.08
2022-12-14T21:54:36.620Z,43.22
2022-12-14T21:57:22.344Z,45.47
2022-12-14T21:59:49.785Z,56.10
2022-12-14T22:02:22.576Z,74.55
2022-12-14T22:04:50.846Z,70.25
2022-12-14T22:07:20.303Z,94.05
2022-12-14T22:09:49.617Z,113.40
2022-12-14T22:12:18.364Z,100.68
2022-12-14T22:14:45.563Z,81.53
2022-12-14T22:17:14.786Z,69.05
2022-12-14T22:19:42.331Z,60.92
2022-12-14T22:22:16.832Z,50.50
2022-12-14T22:24:45.082Z,58.55
2022-12-14T22:27:13.235Z,51.70
2022-12-14T22:29:40.511Z,43.92
2022-12-14T22:32:08.617Z,45.42
2022-12-14T22:34:35.670Z,50.42
2022-12-14T22:37:02.741Z,44.97
2022-12-14T22:39:30.130Z,49.03
2022-12-14T22:41:57.508Z,45.47
2022-12-14T22:44:24.790Z,38.58
2022-12-14T22:46:51.900Z,42.83
2022-12-14T22:49:20.196Z,46.05
2022-12-14T22:51:47.421Z,44.17
2022-12-14T22:54:26.416Z,50.05
2022-12-14T22:57:01.411Z,57.58
2022-12-14T22:59:48.752Z,43.47
2022-12-14T23:02:16.198Z,41.88
2022-12-14T23:04:43.569Z,44.65
2022-12-14T23:07:10.921Z,43.88
2022-12-14T23:09:56.375Z,50.08
2022-12-14T23:12:42.097Z,42.13
2022-12-14T23:15:28.374Z,47.47
2022-12-14T23:18:20.113Z,56.17
2022-12-14T23:21:06.631Z,53.15
2022-12-14T23:23:52.422Z,51.80
2022-12-14T23:26:38.243Z,52.03
2022-12-14T23:29:24.000Z,51.95
2022-12-14T23:32:09.875Z,54.67
2022-12-14T23:34:55.607Z,50.08
2022-12-14T23:37:41.264Z,49.85
2022-12-14T23:40:27.989Z,51.83
2022-12-14T23:43:13.788Z,48.15
2022-12-14T23:45:59.763Z,44.63
2022-12-14T23:48:45.888Z,52.75
2022-12-14T23:51:31.670Z,55.25
2022-12-14T23:54:17.328Z,51.50
2022-12-14T23:57:03.100Z,48.72
2022-12-14T23:59:49.555Z,48.88
